Details From SBBR - Presidente Juscelino Kubitsheck
To SBMK - Mario Ribeiro
Flight Number -
Tags FSEconomy
Created
Modified
Stats Distance 253 nm / 469 km
Max Altitude 13,000 ft / 3,962 m
Waypoints 7
Social Downloads 13
Likes 0
Share

Download

Looking for another format? Having issues loading an existing format? Contact us
Advertisement - Login to hide

Notes

FSEconomy ASA BRASIL flight for GA aircraft. Uses radionavigation and assorted fixes (no airways).

Route

SBBR BRS ISAKA IREBO SFRSC MCL SBMK

ID Type Via Altitude (ft/m) Position (lat/lon) Dist (leg/tot) Name
O SBBR APT - 3,479 / 1,060 -15.87110 / -47.91862 - / 0 nm
BRS VOR - 6,000 / 1,829 -15.87375 / -48.02135 5 / 5 nm
ISAKA FIX - 9,000 / 2,743 -15.91901 / -47.80133 12 / 18 nm
IREBO FIX - 13,000 / 3,962 -15.97584 / -47.52334 16 / 35 nm
SFRSC LATLON - 13,000 / 3,962 -16.47033 / -45.06317 144 / 180 nm
MCL NDB - 4,000 / 1,219 -16.70350 / -43.81917 72 / 253 nm
O SBMK APT - 2,191 / 668 -16.70692 / -43.81890 0 / 253 nm

Altitude Profile

Advertisement - Login to hide

Weather


0- 5 10 15 20 25 30 35+ Temperature / °C

Clouds and Precipitation
Forecast for 2022-05-26 18:00 UTC. Updated 2 hours ago

Ground ~20,000 ft ~40,000 ft Winds

SBBR

Details ICAO SBBR (BSB)
Name Brasilia-Juscelino Kubitschek Intl
Region Brazil
Timezone America/Sao_Paulo (UTC-3.0)
Stats Elevation 3,498 ft / 1,066 m (AMSL)
Location -15.871100° -47.918600°
Runways 2
Magnetic Variation 22.012° W

METAR

SBBR 261700Z 06008KT 010V110 9999 SCT045 25/13 Q1022

Decode

TAF

TAF SBBR 260900Z 2612/2712 12005KT CAVOK TX25/2618Z TN14/2708Z BECMG 2613/2615 09010KT SCT035 BECMG 2616/2618 FEW040 BECMG 2619/2621 09006KT CAVOK RMK PGN

Decode

Departure Runways

ID Width Length Bearing (true/mag) Surface Threshold Overrun Markings Lighting
11L 148 ft / 45 m 10,491 ft / 3,198 m 86.18° / 108.19° ASPHALT 0 ft / 0 m 115 ft / 35 m PREC-APP EDGE THRESHOLD ALSF-I REIL-OMNI
11R 148 ft / 45 m 10,813 ft / 3,296 m 86.18° / 108.19° ASPHALT 0 ft / 0 m 200 ft / 61 m PREC-APP EDGE THRESHOLD ALSF-I
29L 148 ft / 45 m 10,813 ft / 3,296 m 266.17° / 288.18° ASPHALT 0 ft / 0 m 194 ft / 59 m PREC-APP EDGE THRESHOLD ALSF-I
29R 148 ft / 45 m 10,491 ft / 3,198 m 266.17° / 288.18° ASPHALT 0 ft / 0 m 190 ft / 58 m PREC-APP EDGE THRESHOLD ALSF-I REIL-OMNI

SBMK

Details ICAO SBMK (MOC)
Name Montes Claros
Region Brazil
Timezone America/Sao_Paulo (UTC-3.0)
Stats Elevation 2,192 ft / 668 m (AMSL)
Location -16.706900° -43.819000°
Runways 1
Magnetic Variation 23.248° W

METAR

SBMK 261700Z 11009KT CAVOK 27/10 Q1022

Decode

TAF

Not found

Destination Runways

ID Width Length Bearing (true/mag) Surface Threshold Overrun Markings Lighting
12 148 ft / 45 m 6,885 ft / 2,099 m 96.89° / 120.14° ASPHALT 0 ft / 0 m 148 ft / 45 m APP EDGE THRESHOLD
30 148 ft / 45 m 6,885 ft / 2,099 m 276.89° / 300.14° ASPHALT 0 ft / 0 m 98 ft / 30 m APP EDGE THRESHOLD

Popular Alternatives